sensor_id;sensor_type;location;lat;lon;timestamp;P1;durP1;ratioP1;P2;durP2;ratioP2
15002;SDS011;7597;53.590;10.020;2022-11-11T00:01:35;4.72;;;2.33;;
15002;SDS011;7597;53.590;10.020;2022-11-11T00:04:02;9.32;;;2.80;;
15002;SDS011;7597;53.590;10.020;2022-11-11T00:06:29;7.45;;;2.83;;
15002;SDS011;7597;53.590;10.020;2022-11-11T00:08:57;7.97;;;2.67;;
15002;SDS011;7597;53.590;10.020;2022-11-11T00:11:23;6.43;;;2.78;;
15002;SDS011;7597;53.590;10.020;2022-11-11T00:13:50;8.27;;;3.30;;
15002;SDS011;7597;53.590;10.020;2022-11-11T00:16:17;9.90;;;3.50;;
15002;SDS011;7597;53.590;10.020;2022-11-11T00:18:44;11.25;;;3.10;;
15002;SDS011;7597;53.590;10.020;2022-11-11T00:21:15;8.07;;;3.15;;
15002;SDS011;7597;53.590;10.020;2022-11-11T00:23:48;7.37;;;3.17;;
15002;SDS011;7597;53.590;10.020;2022-11-11T00:26:20;8.15;;;3.87;;
15002;SDS011;7597;53.590;10.020;2022-11-11T00:28:47;7.10;;;3.83;;
15002;SDS011;7597;53.590;10.020;2022-11-11T00:31:13;9.10;;;4.25;;
15002;SDS011;7597;53.590;10.020;2022-11-11T00:33:40;9.10;;;3.92;;
15002;SDS011;7597;53.590;10.020;2022-11-11T00:36:07;11.80;;;5.18;;
15002;SDS011;7597;53.590;10.020;2022-11-11T00:38:34;7.28;;;4.28;;
15002;SDS011;7597;53.590;10.020;2022-11-11T00:41:08;8.20;;;4.20;;
15002;SDS011;7597;53.590;10.020;2022-11-11T00:43:33;6.93;;;4.15;;
15002;SDS011;7597;53.590;10.020;2022-11-11T00:46:00;8.32;;;4.43;;
15002;SDS011;7597;53.590;10.020;2022-11-11T00:48:32;9.18;;;4.50;;
15002;SDS011;7597;53.590;10.020;2022-11-11T00:51:04;5.85;;;4.45;;
15002;SDS011;7597;53.590;10.020;2022-11-11T00:53:31;8.52;;;4.80;;
15002;SDS011;7597;53.590;10.020;2022-11-11T00:55:58;10.00;;;4.82;;
15002;SDS011;7597;53.590;10.020;2022-11-11T00:58:24;10.50;;;4.93;;
15002;SDS011;7597;53.590;10.020;2022-11-11T01:00:51;10.40;;;5.25;;
15002;SDS011;7597;53.590;10.020;2022-11-11T01:03:18;6.57;;;5.12;;
15002;SDS011;7597;53.590;10.020;2022-11-11T01:05:44;9.43;;;4.87;;
15002;SDS011;7597;53.590;10.020;2022-11-11T01:08:14;7.65;;;4.82;;
15002;SDS011;7597;53.590;10.020;2022-11-11T01:10:42;12.15;;;5.40;;
15002;SDS011;7597;53.590;10.020;2022-11-11T01:13:13;9.50;;;5.53;;
15002;SDS011;7597;53.590;10.020;2022-11-11T01:15:41;8.98;;;5.68;;
15002;SDS011;7597;53.590;10.020;2022-11-11T01:18:07;8.20;;;6.00;;
15002;SDS011;7597;53.590;10.020;2022-11-11T01:20:33;13.90;;;6.10;;
15002;SDS011;7597;53.590;10.020;2022-11-11T01:23:01;8.35;;;5.20;;
15002;SDS011;7597;53.590;10.020;2022-11-11T01:25:27;7.70;;;5.15;;
15002;SDS011;7597;53.590;10.020;2022-11-11T01:27:54;9.85;;;5.70;;
15002;SDS011;7597;53.590;10.020;2022-11-11T01:30:21;9.50;;;5.57;;
15002;SDS011;7597;53.590;10.020;2022-11-11T01:32:47;9.90;;;5.53;;
15002;SDS011;7597;53.590;10.020;2022-11-11T01:35:14;10.25;;;5.62;;
15002;SDS011;7597;53.590;10.020;2022-11-11T01:37:41;8.70;;;6.00;;
15002;SDS011;7597;53.590;10.020;2022-11-11T01:40:08;10.43;;;5.15;;
15002;SDS011;7597;53.590;10.020;2022-11-11T01:47:51;11.18;;;5.37;;
15002;SDS011;7597;53.590;10.020;2022-11-11T01:50:23;9.68;;;5.43;;
15002;SDS011;7597;53.590;10.020;2022-11-11T01:52:50;8.95;;;5.20;;
15002;SDS011;7597;53.590;10.020;2022-11-11T01:55:17;10.20;;;5.37;;
15002;SDS011;7597;53.590;10.020;2022-11-11T01:57:45;9.60;;;5.37;;
15002;SDS011;7597;53.590;10.020;2022-11-11T02:00:13;9.30;;;5.53;;
15002;SDS011;7597;53.590;10.020;2022-11-11T02:02:42;14.93;;;5.78;;
15002;SDS011;7597;53.590;10.020;2022-11-11T02:05:27;14.60;;;5.62;;
15002;SDS011;7597;53.590;10.020;2022-11-11T02:08:02;9.18;;;5.25;;
15002;SDS011;7597;53.590;10.020;2022-11-11T02:10:27;11.68;;;5.80;;
15002;SDS011;7597;53.590;10.020;2022-11-11T02:12:53;14.48;;;5.70;;
15002;SDS011;7597;53.590;10.020;2022-11-11T02:15:26;10.18;;;5.25;;
15002;SDS011;7597;53.590;10.020;2022-11-11T02:17:53;10.23;;;5.55;;
15002;SDS011;7597;53.590;10.020;2022-11-11T02:20:21;8.10;;;5.30;;
15002;SDS011;7597;53.590;10.020;2022-11-11T02:22:48;8.88;;;6.18;;
15002;SDS011;7597;53.590;10.020;2022-11-11T02:25:16;9.82;;;5.28;;
15002;SDS011;7597;53.590;10.020;2022-11-11T02:27:42;9.98;;;6.35;;
15002;SDS011;7597;53.590;10.020;2022-11-11T02:30:08;14.10;;;6.70;;
15002;SDS011;7597;53.590;10.020;2022-11-11T02:32:35;10.88;;;6.12;;
15002;SDS011;7597;53.590;10.020;2022-11-11T02:35:07;7.15;;;5.43;;
15002;SDS011;7597;53.590;10.020;2022-11-11T02:37:28;8.57;;;5.57;;
15002;SDS011;7597;53.590;10.020;2022-11-11T02:39:56;11.68;;;6.07;;
15002;SDS011;7597;53.590;10.020;2022-11-11T02:42:22;8.88;;;5.70;;
15002;SDS011;7597;53.590;10.020;2022-11-11T02:44:48;9.68;;;5.37;;
15002;SDS011;7597;53.590;10.020;2022-11-11T02:47:15;9.65;;;5.72;;
15002;SDS011;7597;53.590;10.020;2022-11-11T02:49:41;10.70;;;5.35;;
15002;SDS011;7597;53.590;10.020;2022-11-11T02:52:08;14.10;;;5.80;;
15002;SDS011;7597;53.590;10.020;2022-11-11T02:54:35;9.07;;;5.28;;
15002;SDS011;7597;53.590;10.020;2022-11-11T02:57:01;12.63;;;5.62;;
15002;SDS011;7597;53.590;10.020;2022-11-11T02:59:33;9.45;;;5.50;;
15002;SDS011;7597;53.590;10.020;2022-11-11T03:01:59;6.85;;;4.43;;
15002;SDS011;7597;53.590;10.020;2022-11-11T03:04:26;8.50;;;4.95;;
15002;SDS011;7597;53.590;10.020;2022-11-11T03:06:53;9.65;;;5.60;;
15002;SDS011;7597;53.590;10.020;2022-11-11T03:09:19;9.85;;;4.43;;
15002;SDS011;7597;53.590;10.020;2022-11-11T03:11:47;11.45;;;4.85;;
15002;SDS011;7597;53.590;10.020;2022-11-11T03:14:13;7.87;;;5.30;;
15002;SDS011;7597;53.590;10.020;2022-11-11T03:16:40;7.40;;;4.80;;
15002;SDS011;7597;53.590;10.020;2022-11-11T03:19:12;6.30;;;4.43;;
15002;SDS011;7597;53.590;10.020;2022-11-11T03:21:39;11.12;;;5.43;;
15002;SDS011;7597;53.590;10.020;2022-11-11T03:24:06;7.82;;;4.82;;
15002;SDS011;7597;53.590;10.020;2022-11-11T03:26:32;12.30;;;4.53;;
15002;SDS011;7597;53.590;10.020;2022-11-11T03:28:59;7.18;;;4.85;;
15002;SDS011;7597;53.590;10.020;2022-11-11T03:31:26;10.25;;;4.82;;
15002;SDS011;7597;53.590;10.020;2022-11-11T03:33:52;9.07;;;4.60;;
15002;SDS011;7597;53.590;10.020;2022-11-11T03:36:19;14.45;;;4.95;;
15002;SDS011;7597;53.590;10.020;2022-11-11T03:38:46;9.85;;;4.78;;
15002;SDS011;7597;53.590;10.020;2022-11-11T03:41:12;9.77;;;5.57;;
15002;SDS011;7597;53.590;10.020;2022-11-11T03:43:39;14.25;;;5.55;;
15002;SDS011;7597;53.590;10.020;2022-11-11T03:46:06;13.07;;;5.70;;
15002;SDS011;7597;53.590;10.020;2022-11-11T03:48:33;9.52;;;5.15;;
15002;SDS011;7597;53.590;10.020;2022-11-11T03:51:00;12.35;;;5.97;;
15002;SDS011;7597;53.590;10.020;2022-11-11T03:53:27;8.63;;;5.32;;
15002;SDS011;7597;53.590;10.020;2022-11-11T03:55:53;11.57;;;5.45;;
15002;SDS011;7597;53.590;10.020;2022-11-11T03:58:20;7.80;;;5.22;;
15002;SDS011;7597;53.590;10.020;2022-11-11T04:00:47;10.60;;;5.25;;
15002;SDS011;7597;53.590;10.020;2022-11-11T04:03:14;8.82;;;5.30;;
15002;SDS011;7597;53.590;10.020;2022-11-11T04:05:46;12.25;;;5.22;;
15002;SDS011;7597;53.590;10.020;2022-11-11T04:08:18;11.48;;;5.50;;
15002;SDS011;7597;53.590;10.020;2022-11-11T04:10:50;8.45;;;4.90;;
15002;SDS011;7597;53.590;10.020;2022-11-11T04:13:17;9.30;;;4.97;;
15002;SDS011;7597;53.590;10.020;2022-11-11T04:15:49;10.05;;;5.97;;
15002;SDS011;7597;53.590;10.020;2022-11-11T04:18:22;10.23;;;5.90;;
15002;SDS011;7597;53.590;10.020;2022-11-11T04:20:48;10.18;;;5.43;;
15002;SDS011;7597;53.590;10.020;2022-11-11T04:23:21;10.73;;;6.00;;
15002;SDS011;7597;53.590;10.020;2022-11-11T04:25:47;9.88;;;5.60;;
15002;SDS011;7597;53.590;10.020;2022-11-11T04:28:14;13.50;;;5.82;;
15002;SDS011;7597;53.590;10.020;2022-11-11T04:30:47;12.75;;;5.65;;
15002;SDS011;7597;53.590;10.020;2022-11-11T04:33:13;13.45;;;5.93;;
15002;SDS011;7597;53.590;10.020;2022-11-11T04:35:40;9.57;;;6.15;;
15002;SDS011;7597;53.590;10.020;2022-11-11T04:38:07;12.65;;;5.87;;
15002;SDS011;7597;53.590;10.020;2022-11-11T04:40:39;8.30;;;5.85;;
15002;SDS011;7597;53.590;10.020;2022-11-11T04:43:11;10.60;;;5.57;;
15002;SDS011;7597;53.590;10.020;2022-11-11T04:45:38;10.57;;;5.93;;
15002;SDS011;7597;53.590;10.020;2022-11-11T04:48:06;15.05;;;7.03;;
15002;SDS011;7597;53.590;10.020;2022-11-11T04:50:35;12.77;;;6.60;;
15002;SDS011;7597;53.590;10.020;2022-11-11T04:53:04;9.68;;;6.50;;
15002;SDS011;7597;53.590;10.020;2022-11-11T04:55:29;12.32;;;6.20;;
15002;SDS011;7597;53.590;10.020;2022-11-11T04:58:01;9.88;;;5.90;;
15002;SDS011;7597;53.590;10.020;2022-11-11T05:00:28;14.27;;;7.07;;
15002;SDS011;7597;53.590;10.020;2022-11-11T05:02:55;9.63;;;6.75;;
15002;SDS011;7597;53.590;10.020;2022-11-11T05:05:28;10.43;;;6.18;;
15002;SDS011;7597;53.590;10.020;2022-11-11T05:07:55;11.40;;;6.85;;
15002;SDS011;7597;53.590;10.020;2022-11-11T05:10:27;9.95;;;6.25;;
15002;SDS011;7597;53.590;10.020;2022-11-11T05:12:53;9.07;;;6.62;;
15002;SDS011;7597;53.590;10.020;2022-11-11T05:15:20;8.77;;;6.57;;
15002;SDS011;7597;53.590;10.020;2022-11-11T05:17:53;9.15;;;6.10;;
15002;SDS011;7597;53.590;10.020;2022-11-11T05:20:35;11.55;;;6.87;;
15002;SDS011;7597;53.590;10.020;2022-11-11T05:23:21;11.38;;;7.28;;
15002;SDS011;7597;53.590;10.020;2022-11-11T05:25:48;13.57;;;8.52;;
15002;SDS011;7597;53.590;10.020;2022-11-11T05:28:15;12.75;;;7.35;;
15002;SDS011;7597;53.590;10.020;2022-11-11T05:30:42;12.40;;;7.50;;
15002;SDS011;7597;53.590;10.020;2022-11-11T05:33:10;14.63;;;8.20;;
15002;SDS011;7597;53.590;10.020;2022-11-11T05:35:36;11.65;;;7.28;;
15002;SDS011;7597;53.590;10.020;2022-11-11T05:38:03;12.25;;;7.87;;
15002;SDS011;7597;53.590;10.020;2022-11-11T05:40:35;12.05;;;7.78;;
15002;SDS011;7597;53.590;10.020;2022-11-11T05:43:02;14.45;;;7.95;;
15002;SDS011;7597;53.590;10.020;2022-11-11T05:45:28;15.65;;;8.05;;
15002;SDS011;7597;53.590;10.020;2022-11-11T05:47:59;14.57;;;8.35;;
15002;SDS011;7597;53.590;10.020;2022-11-11T05:50:22;11.65;;;7.18;;
15002;SDS011;7597;53.590;10.020;2022-11-11T05:52:48;12.90;;;8.02;;
15002;SDS011;7597;53.590;10.020;2022-11-11T05:55:15;11.40;;;7.85;;
15002;SDS011;7597;53.590;10.020;2022-11-11T05:57:43;12.05;;;7.82;;
15002;SDS011;7597;53.590;10.020;2022-11-11T06:00:09;12.82;;;8.07;;
15002;SDS011;7597;53.590;10.020;2022-11-11T06:02:36;10.15;;;7.20;;
15002;SDS011;7597;53.590;10.020;2022-11-11T06:05:03;13.35;;;8.32;;
15002;SDS011;7597;53.590;10.020;2022-11-11T06:07:30;16.92;;;10.00;;
15002;SDS011;7597;53.590;10.020;2022-11-11T06:09:57;18.73;;;8.95;;
15002;SDS011;7597;53.590;10.020;2022-11-11T06:12:23;13.55;;;8.88;;
15002;SDS011;7597;53.590;10.020;2022-11-11T06:14:50;14.43;;;9.27;;
15002;SDS011;7597;53.590;10.020;2022-11-11T06:17:18;15.48;;;10.20;;
15002;SDS011;7597;53.590;10.020;2022-11-11T06:19:44;14.38;;;9.57;;
15002;SDS011;7597;53.590;10.020;2022-11-11T06:22:11;17.08;;;9.70;;
15002;SDS011;7597;53.590;10.020;2022-11-11T06:24:38;14.35;;;10.00;;
15002;SDS011;7597;53.590;10.020;2022-11-11T06:27:04;16.75;;;9.88;;
15002;SDS011;7597;53.590;10.020;2022-11-11T06:29:32;14.77;;;10.52;;
15002;SDS011;7597;53.590;10.020;2022-11-11T06:31:59;18.35;;;11.52;;
15002;SDS011;7597;53.590;10.020;2022-11-11T06:34:25;18.00;;;9.98;;
15002;SDS011;7597;53.590;10.020;2022-11-11T06:36:52;16.05;;;9.48;;
15002;SDS011;7597;53.590;10.020;2022-11-11T06:39:19;16.80;;;10.80;;
15002;SDS011;7597;53.590;10.020;2022-11-11T06:41:45;16.83;;;11.05;;
15002;SDS011;7597;53.590;10.020;2022-11-11T06:44:12;17.30;;;11.10;;
15002;SDS011;7597;53.590;10.020;2022-11-11T06:46:39;18.10;;;11.23;;
15002;SDS011;7597;53.590;10.020;2022-11-11T06:49:06;20.48;;;11.43;;
15002;SDS011;7597;53.590;10.020;2022-11-11T06:51:34;20.42;;;11.82;;
15002;SDS011;7597;53.590;10.020;2022-11-11T06:54:02;19.33;;;11.63;;
15002;SDS011;7597;53.590;10.020;2022-11-11T06:56:30;17.95;;;11.12;;
15002;SDS011;7597;53.590;10.020;2022-11-11T06:58:56;17.58;;;12.02;;
15002;SDS011;7597;53.590;10.020;2022-11-11T07:01:23;20.20;;;12.07;;
15002;SDS011;7597;53.590;10.020;2022-11-11T07:03:50;21.92;;;13.13;;
15002;SDS011;7597;53.590;10.020;2022-11-11T07:06:16;20.10;;;12.88;;
15002;SDS011;7597;53.590;10.020;2022-11-11T07:08:43;23.60;;;12.32;;
15002;SDS011;7597;53.590;10.020;2022-11-11T07:11:25;24.48;;;13.02;;
15002;SDS011;7597;53.590;10.020;2022-11-11T07:13:52;22.42;;;12.80;;
15002;SDS011;7597;53.590;10.020;2022-11-11T07:16:19;16.17;;;11.85;;
15002;SDS011;7597;53.590;10.020;2022-11-11T07:18:45;19.10;;;13.45;;
15002;SDS011;7597;53.590;10.020;2022-11-11T07:21:12;20.25;;;13.05;;
15002;SDS011;7597;53.590;10.020;2022-11-11T07:23:39;25.10;;;13.68;;
15002;SDS011;7597;53.590;10.020;2022-11-11T07:26:05;20.62;;;13.15;;
15002;SDS011;7597;53.590;10.020;2022-11-11T07:28:32;24.63;;;13.98;;
15002;SDS011;7597;53.590;10.020;2022-11-11T07:31:00;21.75;;;13.38;;
15002;SDS011;7597;53.590;10.020;2022-11-11T07:33:26;27.67;;;13.68;;
15002;SDS011;7597;53.590;10.020;2022-11-11T07:35:53;26.87;;;13.35;;
15002;SDS011;7597;53.590;10.020;2022-11-11T07:38:20;23.98;;;13.90;;
15002;SDS011;7597;53.590;10.020;2022-11-11T07:40:46;21.83;;;13.80;;
15002;SDS011;7597;53.590;10.020;2022-11-11T07:43:13;21.00;;;13.35;;
15002;SDS011;7597;53.590;10.020;2022-11-11T07:45:40;27.40;;;14.13;;
15002;SDS011;7597;53.590;10.020;2022-11-11T07:48:07;29.25;;;14.30;;
15002;SDS011;7597;53.590;10.020;2022-11-11T07:50:33;24.50;;;14.87;;
15002;SDS011;7597;53.590;10.020;2022-11-11T07:53:00;29.70;;;14.82;;
15002;SDS011;7597;53.590;10.020;2022-11-11T07:55:27;28.00;;;14.95;;
15002;SDS011;7597;53.590;10.020;2022-11-11T07:57:53;24.33;;;14.85;;
15002;SDS011;7597;53.590;10.020;2022-11-11T08:00:20;27.48;;;15.85;;
15002;SDS011;7597;53.590;10.020;2022-11-11T08:02:47;25.40;;;15.68;;
15002;SDS011;7597;53.590;10.020;2022-11-11T08:05:14;28.02;;;15.80;;
15002;SDS011;7597;53.590;10.020;2022-11-11T08:07:40;25.55;;;16.00;;
15002;SDS011;7597;53.590;10.020;2022-11-11T08:10:08;21.77;;;14.77;;
15002;SDS011;7597;53.590;10.020;2022-11-11T08:12:35;27.92;;;16.37;;
15002;SDS011;7597;53.590;10.020;2022-11-11T08:15:08;25.12;;;15.00;;
15002;SDS011;7597;53.590;10.020;2022-11-11T08:17:36;30.25;;;15.45;;
15002;SDS011;7597;53.590;10.020;2022-11-11T08:20:02;27.50;;;15.50;;
15002;SDS011;7597;53.590;10.020;2022-11-11T08:22:31;24.37;;;15.10;;
15002;SDS011;7597;53.590;10.020;2022-11-11T08:24:55;28.15;;;16.52;;
15002;SDS011;7597;53.590;10.020;2022-11-11T08:27:22;23.80;;;15.75;;
15002;SDS011;7597;53.590;10.020;2022-11-11T08:29:49;31.73;;;16.70;;
15002;SDS011;7597;53.590;10.020;2022-11-11T08:32:15;26.42;;;15.85;;
15002;SDS011;7597;53.590;10.020;2022-11-11T08:34:42;23.98;;;16.12;;
15002;SDS011;7597;53.590;10.020;2022-11-11T08:37:09;28.73;;;15.88;;
15002;SDS011;7597;53.590;10.020;2022-11-11T08:39:36;24.05;;;15.63;;
15002;SDS011;7597;53.590;10.020;2022-11-11T08:42:02;21.83;;;15.35;;
15002;SDS011;7597;53.590;10.020;2022-11-11T08:44:30;27.67;;;16.35;;
15002;SDS011;7597;53.590;10.020;2022-11-11T08:46:57;24.73;;;15.82;;
15002;SDS011;7597;53.590;10.020;2022-11-11T08:49:23;23.73;;;15.45;;
15002;SDS011;7597;53.590;10.020;2022-11-11T08:51:50;25.60;;;15.50;;
15002;SDS011;7597;53.590;10.020;2022-11-11T08:54:17;25.02;;;16.23;;
15002;SDS011;7597;53.590;10.020;2022-11-11T08:56:44;23.95;;;15.73;;
15002;SDS011;7597;53.590;10.020;2022-11-11T08:59:12;19.45;;;15.35;;
15002;SDS011;7597;53.590;10.020;2022-11-11T09:01:39;23.35;;;15.20;;
15002;SDS011;7597;53.590;10.020;2022-11-11T09:04:06;26.42;;;16.08;;
15002;SDS011;7597;53.590;10.020;2022-11-11T09:06:34;22.67;;;15.43;;
15002;SDS011;7597;53.590;10.020;2022-11-11T09:09:01;21.90;;;16.27;;
15002;SDS011;7597;53.590;10.020;2022-11-11T09:11:28;23.25;;;16.23;;
15002;SDS011;7597;53.590;10.020;2022-11-11T09:13:54;27.58;;;16.08;;
15002;SDS011;7597;53.590;10.020;2022-11-11T09:16:21;25.17;;;15.82;;
15002;SDS011;7597;53.590;10.020;2022-11-11T09:18:48;24.90;;;16.67;;
15002;SDS011;7597;53.590;10.020;2022-11-11T09:21:16;28.30;;;15.85;;
15002;SDS011;7597;53.590;10.020;2022-11-11T09:23:43;26.75;;;16.62;;
15002;SDS011;7597;53.590;10.020;2022-11-11T09:26:09;32.05;;;16.65;;
15002;SDS011;7597;53.590;10.020;2022-11-11T09:28:37;27.17;;;15.63;;
15002;SDS011;7597;53.590;10.020;2022-11-11T09:31:04;23.70;;;15.20;;
15002;SDS011;7597;53.590;10.020;2022-11-11T09:33:31;22.45;;;15.27;;
15002;SDS011;7597;53.590;10.020;2022-11-11T09:35:58;23.62;;;15.77;;
15002;SDS011;7597;53.590;10.020;2022-11-11T09:38:24;21.40;;;16.02;;
15002;SDS011;7597;53.590;10.020;2022-11-11T09:41:00;24.27;;;15.57;;
15002;SDS011;7597;53.590;10.020;2022-11-11T09:43:34;29.70;;;15.48;;
15002;SDS011;7597;53.590;10.020;2022-11-11T09:46:03;23.65;;;16.00;;
15002;SDS011;7597;53.590;10.020;2022-11-11T09:48:40;24.55;;;16.55;;
15002;SDS011;7597;53.590;10.020;2022-11-11T09:51:08;26.70;;;16.45;;
15002;SDS011;7597;53.590;10.020;2022-11-11T09:53:34;26.05;;;15.57;;
15002;SDS011;7597;53.590;10.020;2022-11-11T09:56:01;24.60;;;16.10;;
15002;SDS011;7597;53.590;10.020;2022-11-11T09:58:28;20.73;;;15.32;;
15002;SDS011;7597;53.590;10.020;2022-11-11T10:01:06;25.98;;;15.70;;
15002;SDS011;7597;53.590;10.020;2022-11-11T10:03:35;28.60;;;16.73;;
15002;SDS011;7597;53.590;10.020;2022-11-11T10:06:02;21.25;;;14.82;;
15002;SDS011;7597;53.590;10.020;2022-11-11T10:08:45;28.73;;;15.95;;
15002;SDS011;7597;53.590;10.020;2022-11-11T10:11:15;26.12;;;15.23;;
15002;SDS011;7597;53.590;10.020;2022-11-11T10:13:40;23.98;;;14.73;;
15002;SDS011;7597;53.590;10.020;2022-11-11T10:21:49;20.33;;;14.73;;
15002;SDS011;7597;53.590;10.020;2022-11-11T10:24:27;30.70;;;15.02;;
15002;SDS011;7597;53.590;10.020;2022-11-11T10:26:42;23.30;;;15.55;;
15002;SDS011;7597;53.590;10.020;2022-11-11T10:29:12;22.80;;;14.27;;
15002;SDS011;7597;53.590;10.020;2022-11-11T10:31:50;22.45;;;14.32;;
15002;SDS011;7597;53.590;10.020;2022-11-11T10:34:14;25.10;;;15.23;;
15002;SDS011;7597;53.590;10.020;2022-11-11T10:36:43;23.95;;;15.13;;
15002;SDS011;7597;53.590;10.020;2022-11-11T10:39:10;20.75;;;15.00;;
15002;SDS011;7597;53.590;10.020;2022-11-11T10:41:37;22.23;;;14.48;;
15002;SDS011;7597;53.590;10.020;2022-11-11T10:46:43;21.35;;;13.98;;
15002;SDS011;7597;53.590;10.020;2022-11-11T10:49:10;21.50;;;15.23;;
15002;SDS011;7597;53.590;10.020;2022-11-11T10:51:38;24.05;;;14.20;;
15002;SDS011;7597;53.590;10.020;2022-11-11T10:54:12;21.00;;;14.43;;
15002;SDS011;7597;53.590;10.020;2022-11-11T10:56:42;22.17;;;15.50;;
15002;SDS011;7597;53.590;10.020;2022-11-11T10:59:13;24.37;;;14.65;;
15002;SDS011;7597;53.590;10.020;2022-11-11T11:01:55;18.10;;;13.62;;
15002;SDS011;7597;53.590;10.020;2022-11-11T11:04:25;20.45;;;14.00;;
15002;SDS011;7597;53.590;10.020;2022-11-11T11:06:59;23.38;;;14.43;;
15002;SDS011;7597;53.590;10.020;2022-11-11T11:09:30;19.95;;;13.95;;
15002;SDS011;7597;53.590;10.020;2022-11-11T11:11:59;18.92;;;13.68;;
15002;SDS011;7597;53.590;10.020;2022-11-11T11:14:28;24.70;;;14.80;;
15002;SDS011;7597;53.590;10.020;2022-11-11T11:16:54;21.60;;;13.90;;
15002;SDS011;7597;53.590;10.020;2022-11-11T11:19:23;20.25;;;13.82;;
15002;SDS011;7597;53.590;10.020;2022-11-11T11:21:52;21.27;;;14.15;;
15002;SDS011;7597;53.590;10.020;2022-11-11T11:24:18;20.40;;;13.55;;
15002;SDS011;7597;53.590;10.020;2022-11-11T11:26:45;20.30;;;14.45;;
15002;SDS011;7597;53.590;10.020;2022-11-11T11:29:11;18.52;;;14.68;;
15002;SDS011;7597;53.590;10.020;2022-11-11T11:31:39;22.02;;;14.60;;
15002;SDS011;7597;53.590;10.020;2022-11-11T11:34:05;22.48;;;14.80;;
15002;SDS011;7597;53.590;10.020;2022-11-11T11:36:32;17.35;;;13.55;;
15002;SDS011;7597;53.590;10.020;2022-11-11T11:38:59;23.62;;;14.05;;
15002;SDS011;7597;53.590;10.020;2022-11-11T11:41:37;26.10;;;14.77;;
15002;SDS011;7597;53.590;10.020;2022-11-11T11:46:43;20.95;;;13.52;;
15002;SDS011;7597;53.590;10.020;2022-11-11T11:49:20;19.25;;;14.20;;
15002;SDS011;7597;53.590;10.020;2022-11-11T11:52:05;18.02;;;14.50;;
15002;SDS011;7597;53.590;10.020;2022-11-11T11:54:37;19.90;;;13.48;;
15002;SDS011;7597;53.590;10.020;2022-11-11T11:57:27;20.67;;;14.25;;
15002;SDS011;7597;53.590;10.020;2022-11-11T12:00:13;18.20;;;13.27;;
15002;SDS011;7597;53.590;10.020;2022-11-11T12:02:55;16.85;;;13.23;;
15002;SDS011;7597;53.590;10.020;2022-11-11T12:05:24;20.37;;;14.50;;
15002;SDS011;7597;53.590;10.020;2022-11-11T12:08:05;18.37;;;12.98;;
15002;SDS011;7597;53.590;10.020;2022-11-11T12:10:46;19.67;;;14.40;;
15002;SDS011;7597;53.590;10.020;2022-11-11T12:13:20;18.58;;;14.10;;
15002;SDS011;7597;53.590;10.020;2022-11-11T12:15:51;20.92;;;14.57;;
15002;SDS011;7597;53.590;10.020;2022-11-11T12:18:56;16.70;;;13.05;;
15002;SDS011;7597;53.590;10.020;2022-11-11T12:21:09;24.73;;;14.65;;
15002;SDS011;7597;53.590;10.020;2022-11-11T12:23:41;20.85;;;14.57;;
15002;SDS011;7597;53.590;10.020;2022-11-11T12:26:08;19.95;;;14.27;;
15002;SDS011;7597;53.590;10.020;2022-11-11T12:28:47;23.27;;;14.80;;
15002;SDS011;7597;53.590;10.020;2022-11-11T12:31:21;21.50;;;14.98;;
15002;SDS011;7597;53.590;10.020;2022-11-11T12:33:50;20.92;;;14.30;;
15002;SDS011;7597;53.590;10.020;2022-11-11T12:36:40;19.23;;;13.95;;
15002;SDS011;7597;53.590;10.020;2022-11-11T12:40:20;19.90;;;14.13;;
15002;SDS011;7597;53.590;10.020;2022-11-11T12:42:15;20.90;;;13.15;;
15002;SDS011;7597;53.590;10.020;2022-11-11T12:44:47;19.73;;;13.57;;
15002;SDS011;7597;53.590;10.020;2022-11-11T12:48:04;17.95;;;13.75;;
15002;SDS011;7597;53.590;10.020;2022-11-11T12:50:20;21.08;;;14.40;;
15002;SDS011;7597;53.590;10.020;2022-11-11T12:52:59;19.15;;;13.30;;
15002;SDS011;7597;53.590;10.020;2022-11-11T12:55:39;21.15;;;13.30;;
15002;SDS011;7597;53.590;10.020;2022-11-11T12:58:35;18.67;;;13.80;;
15002;SDS011;7597;53.590;10.020;2022-11-11T13:01:09;17.87;;;13.27;;
15002;SDS011;7597;53.590;10.020;2022-11-11T13:06:22;15.60;;;11.90;;
15002;SDS011;7597;53.590;10.020;2022-11-11T13:09:13;21.23;;;13.30;;
15002;SDS011;7597;53.590;10.020;2022-11-11T13:14:39;16.37;;;12.65;;
15002;SDS011;7597;53.590;10.020;2022-11-11T13:17:03;18.10;;;13.10;;
15002;SDS011;7597;53.590;10.020;2022-11-11T13:19:32;19.17;;;13.85;;
15002;SDS011;7597;53.590;10.020;2022-11-11T13:22:00;19.23;;;13.77;;
15002;SDS011;7597;53.590;10.020;2022-11-11T13:24:28;19.65;;;14.15;;
15002;SDS011;7597;53.590;10.020;2022-11-11T13:26:56;16.50;;;13.60;;
15002;SDS011;7597;53.590;10.020;2022-11-11T13:32:15;19.77;;;13.88;;
15002;SDS011;7597;53.590;10.020;2022-11-11T13:34:41;17.75;;;13.25;;
15002;SDS011;7597;53.590;10.020;2022-11-11T13:37:08;20.83;;;14.32;;
15002;SDS011;7597;53.590;10.020;2022-11-11T13:39:39;17.23;;;13.20;;
15002;SDS011;7597;53.590;10.020;2022-11-11T13:42:05;16.65;;;13.77;;
15002;SDS011;7597;53.590;10.020;2022-11-11T13:44:34;20.33;;;14.15;;
15002;SDS011;7597;53.590;10.020;2022-11-11T13:47:02;19.25;;;15.55;;
15002;SDS011;7597;53.590;10.020;2022-11-11T13:49:31;19.00;;;14.52;;
15002;SDS011;7597;53.590;10.020;2022-11-11T13:52:00;19.00;;;14.45;;
15002;SDS011;7597;53.590;10.020;2022-11-11T13:54:29;17.77;;;14.48;;
15002;SDS011;7597;53.590;10.020;2022-11-11T13:57:00;19.60;;;14.15;;
15002;SDS011;7597;53.590;10.020;2022-11-11T13:59:27;19.60;;;14.73;;
15002;SDS011;7597;53.590;10.020;2022-11-11T14:02:28;18.60;;;14.63;;
15002;SDS011;7597;53.590;10.020;2022-11-11T14:07:46;19.55;;;14.60;;
15002;SDS011;7597;53.590;10.020;2022-11-11T14:16:01;16.77;;;13.75;;
15002;SDS011;7597;53.590;10.020;2022-11-11T14:18:35;19.05;;;15.15;;
15002;SDS011;7597;53.590;10.020;2022-11-11T14:21:03;17.25;;;14.13;;
15002;SDS011;7597;53.590;10.020;2022-11-11T14:23:34;17.30;;;14.27;;
15002;SDS011;7597;53.590;10.020;2022-11-11T14:28:54;15.27;;;13.18;;
15002;SDS011;7597;53.590;10.020;2022-11-11T14:31:32;16.37;;;13.82;;
15002;SDS011;7597;53.590;10.020;2022-11-11T14:34:05;18.00;;;14.32;;
15002;SDS011;7597;53.590;10.020;2022-11-11T14:39:31;16.90;;;14.07;;
15002;SDS011;7597;53.590;10.020;2022-11-11T14:42:00;16.55;;;14.48;;
15002;SDS011;7597;53.590;10.020;2022-11-11T14:44:38;15.90;;;13.68;;
15002;SDS011;7597;53.590;10.020;2022-11-11T14:47:38;17.60;;;13.73;;
15002;SDS011;7597;53.590;10.020;2022-11-11T14:49:50;16.67;;;13.30;;
15002;SDS011;7597;53.590;10.020;2022-11-11T14:52:29;17.67;;;13.77;;
15002;SDS011;7597;53.590;10.020;2022-11-11T14:55:33;16.90;;;13.52;;
15002;SDS011;7597;53.590;10.020;2022-11-11T14:57:46;15.77;;;13.27;;
15002;SDS011;7597;53.590;10.020;2022-11-11T15:00:13;18.85;;;13.95;;
15002;SDS011;7597;53.590;10.020;2022-11-11T15:02:47;16.92;;;14.15;;
15002;SDS011;7597;53.590;10.020;2022-11-11T15:05:24;18.58;;;13.60;;
15002;SDS011;7597;53.590;10.020;2022-11-11T15:07:53;18.02;;;14.30;;
15002;SDS011;7597;53.590;10.020;2022-11-11T15:10:32;18.02;;;13.32;;
15002;SDS011;7597;53.590;10.020;2022-11-11T15:13:04;18.98;;;13.32;;
15002;SDS011;7597;53.590;10.020;2022-11-11T15:15:38;18.27;;;14.30;;
15002;SDS011;7597;53.590;10.020;2022-11-11T15:18:20;17.65;;;13.90;;
15002;SDS011;7597;53.590;10.020;2022-11-11T15:20:54;15.48;;;13.48;;
15002;SDS011;7597;53.590;10.020;2022-11-11T15:23:41;16.87;;;13.95;;